sensor_id;sensor_type;location;lat;lon;timestamp;P1;durP1;ratioP1;P2;durP2;ratioP2
8574;SDS011;4325;42.520;27.448;2024-01-30T00:00:08;13.80;;;7.43;;
8574;SDS011;4325;42.520;27.448;2024-01-30T00:02:36;11.97;;;6.37;;
8574;SDS011;4325;42.520;27.448;2024-01-30T00:05:03;12.83;;;6.90;;
8574;SDS011;4325;42.520;27.448;2024-01-30T00:07:30;14.27;;;6.53;;
8574;SDS011;4325;42.520;27.448;2024-01-30T00:09:57;12.07;;;6.40;;
8574;SDS011;4325;42.520;27.448;2024-01-30T00:12:26;13.30;;;7.43;;
8574;SDS011;4325;42.520;27.448;2024-01-30T00:14:53;11.17;;;6.50;;
8574;SDS011;4325;42.520;27.448;2024-01-30T00:17:20;14.60;;;6.87;;
8574;SDS011;4325;42.520;27.448;2024-01-30T00:19:47;13.33;;;6.17;;
8574;SDS011;4325;42.520;27.448;2024-01-30T00:22:14;12.70;;;6.17;;
8574;SDS011;4325;42.520;27.448;2024-01-30T00:24:41;12.80;;;7.00;;
8574;SDS011;4325;42.520;27.448;2024-01-30T00:27:08;11.70;;;6.13;;
8574;SDS011;4325;42.520;27.448;2024-01-30T00:29:37;12.63;;;6.60;;
8574;SDS011;4325;42.520;27.448;2024-01-30T00:32:04;15.20;;;6.63;;
8574;SDS011;4325;42.520;27.448;2024-01-30T00:34:32;14.87;;;6.17;;
8574;SDS011;4325;42.520;27.448;2024-01-30T00:36:59;10.13;;;5.73;;
8574;SDS011;4325;42.520;27.448;2024-01-30T00:39:26;13.57;;;7.53;;
8574;SDS011;4325;42.520;27.448;2024-01-30T00:41:53;12.73;;;6.33;;
8574;SDS011;4325;42.520;27.448;2024-01-30T00:44:20;13.80;;;5.80;;
8574;SDS011;4325;42.520;27.448;2024-01-30T00:46:49;12.87;;;6.30;;
8574;SDS011;4325;42.520;27.448;2024-01-30T00:49:16;13.73;;;6.13;;
8574;SDS011;4325;42.520;27.448;2024-01-30T00:51:43;8.70;;;5.20;;
8574;SDS011;4325;42.520;27.448;2024-01-30T00:54:10;9.67;;;5.73;;
8574;SDS011;4325;42.520;27.448;2024-01-30T00:56:37;12.07;;;5.27;;
8574;SDS011;4325;42.520;27.448;2024-01-30T00:59:04;10.20;;;5.37;;
8574;SDS011;4325;42.520;27.448;2024-01-30T01:01:31;13.80;;;6.43;;
8574;SDS011;4325;42.520;27.448;2024-01-30T01:03:59;11.57;;;6.30;;
8574;SDS011;4325;42.520;27.448;2024-01-30T01:06:27;11.63;;;6.13;;
8574;SDS011;4325;42.520;27.448;2024-01-30T01:08:54;11.47;;;5.70;;
8574;SDS011;4325;42.520;27.448;2024-01-30T01:11:21;10.63;;;5.53;;
8574;SDS011;4325;42.520;27.448;2024-01-30T01:13:48;12.53;;;6.10;;
8574;SDS011;4325;42.520;27.448;2024-01-30T01:16:15;9.27;;;6.10;;
8574;SDS011;4325;42.520;27.448;2024-01-30T01:18:42;8.73;;;5.90;;
8574;SDS011;4325;42.520;27.448;2024-01-30T01:21:11;8.80;;;5.90;;
8574;SDS011;4325;42.520;27.448;2024-01-30T01:23:38;8.40;;;5.53;;
8574;SDS011;4325;42.520;27.448;2024-01-30T01:26:05;10.17;;;5.97;;
8574;SDS011;4325;42.520;27.448;2024-01-30T01:28:32;11.97;;;6.07;;
8574;SDS011;4325;42.520;27.448;2024-01-30T01:30:59;13.90;;;6.63;;
8574;SDS011;4325;42.520;27.448;2024-01-30T01:33:30;11.17;;;6.47;;
8574;SDS011;4325;42.520;27.448;2024-01-30T01:35:58;13.80;;;6.37;;
8574;SDS011;4325;42.520;27.448;2024-01-30T01:38:29;11.03;;;5.87;;
8574;SDS011;4325;42.520;27.448;2024-01-30T01:40:56;14.33;;;6.53;;
8574;SDS011;4325;42.520;27.448;2024-01-30T01:43:23;12.60;;;6.77;;
8574;SDS011;4325;42.520;27.448;2024-01-30T01:45:50;14.00;;;6.63;;
8574;SDS011;4325;42.520;27.448;2024-01-30T01:48:17;11.80;;;6.50;;
8574;SDS011;4325;42.520;27.448;2024-01-30T01:50:44;12.50;;;6.53;;
8574;SDS011;4325;42.520;27.448;2024-01-30T01:53:11;13.63;;;6.83;;
8574;SDS011;4325;42.520;27.448;2024-01-30T01:55:40;13.33;;;7.37;;
8574;SDS011;4325;42.520;27.448;2024-01-30T01:58:07;10.73;;;6.20;;
8574;SDS011;4325;42.520;27.448;2024-01-30T02:00:37;12.47;;;6.63;;
8574;SDS011;4325;42.520;27.448;2024-01-30T02:03:07;15.17;;;7.10;;
8574;SDS011;4325;42.520;27.448;2024-01-30T02:05:36;12.73;;;6.40;;
8574;SDS011;4325;42.520;27.448;2024-01-30T02:08:04;10.87;;;6.07;;
8574;SDS011;4325;42.520;27.448;2024-01-30T02:10:32;13.37;;;5.73;;
8574;SDS011;4325;42.520;27.448;2024-01-30T02:13:01;12.03;;;6.47;;
8574;SDS011;4325;42.520;27.448;2024-01-30T02:15:28;13.90;;;6.90;;
8574;SDS011;4325;42.520;27.448;2024-01-30T02:17:55;11.47;;;6.43;;
8574;SDS011;4325;42.520;27.448;2024-01-30T02:20:22;10.03;;;6.27;;
8574;SDS011;4325;42.520;27.448;2024-01-30T02:22:52;12.17;;;6.40;;
8574;SDS011;4325;42.520;27.448;2024-01-30T02:25:29;14.77;;;6.50;;
8574;SDS011;4325;42.520;27.448;2024-01-30T02:27:57;9.93;;;6.07;;
8574;SDS011;4325;42.520;27.448;2024-01-30T02:30:24;11.73;;;6.53;;
8574;SDS011;4325;42.520;27.448;2024-01-30T02:32:51;11.83;;;6.83;;
8574;SDS011;4325;42.520;27.448;2024-01-30T02:35:18;11.00;;;6.10;;
8574;SDS011;4325;42.520;27.448;2024-01-30T02:37:45;12.70;;;6.63;;
8574;SDS011;4325;42.520;27.448;2024-01-30T02:40:13;11.10;;;6.43;;
8574;SDS011;4325;42.520;27.448;2024-01-30T02:42:41;12.87;;;6.80;;
8574;SDS011;4325;42.520;27.448;2024-01-30T02:45:08;10.97;;;6.30;;
8574;SDS011;4325;42.520;27.448;2024-01-30T02:47:36;11.43;;;6.77;;
8574;SDS011;4325;42.520;27.448;2024-01-30T02:50:03;10.97;;;5.90;;
8574;SDS011;4325;42.520;27.448;2024-01-30T02:52:31;13.30;;;7.00;;
8574;SDS011;4325;42.520;27.448;2024-01-30T02:54:58;10.27;;;6.63;;
8574;SDS011;4325;42.520;27.448;2024-01-30T02:57:27;10.90;;;6.00;;
8574;SDS011;4325;42.520;27.448;2024-01-30T02:59:54;12.97;;;6.63;;
8574;SDS011;4325;42.520;27.448;2024-01-30T03:02:21;12.20;;;6.07;;
8574;SDS011;4325;42.520;27.448;2024-01-30T03:04:48;14.13;;;7.23;;
8574;SDS011;4325;42.520;27.448;2024-01-30T03:07:15;10.10;;;6.20;;
8574;SDS011;4325;42.520;27.448;2024-01-30T03:09:42;8.53;;;5.60;;
8574;SDS011;4325;42.520;27.448;2024-01-30T03:12:09;11.47;;;6.10;;
8574;SDS011;4325;42.520;27.448;2024-01-30T03:14:37;9.70;;;6.30;;
8574;SDS011;4325;42.520;27.448;2024-01-30T03:17:04;13.17;;;6.73;;
8574;SDS011;4325;42.520;27.448;2024-01-30T03:19:31;11.67;;;6.87;;
8574;SDS011;4325;42.520;27.448;2024-01-30T03:21:58;12.37;;;5.90;;
8574;SDS011;4325;42.520;27.448;2024-01-30T03:24:25;12.77;;;6.87;;
8574;SDS011;4325;42.520;27.448;2024-01-30T03:26:52;13.33;;;7.13;;
8574;SDS011;4325;42.520;27.448;2024-01-30T03:29:19;10.63;;;5.80;;
8574;SDS011;4325;42.520;27.448;2024-01-30T03:31:48;14.33;;;6.40;;
8574;SDS011;4325;42.520;27.448;2024-01-30T03:34:15;11.60;;;6.90;;
8574;SDS011;4325;42.520;27.448;2024-01-30T03:36:42;11.87;;;6.70;;
8574;SDS011;4325;42.520;27.448;2024-01-30T03:39:09;13.27;;;6.00;;
8574;SDS011;4325;42.520;27.448;2024-01-30T03:41:36;10.37;;;6.00;;
8574;SDS011;4325;42.520;27.448;2024-01-30T03:44:03;10.90;;;6.20;;
8574;SDS011;4325;42.520;27.448;2024-01-30T03:46:30;13.10;;;6.50;;
8574;SDS011;4325;42.520;27.448;2024-01-30T03:48:59;11.30;;;5.97;;
8574;SDS011;4325;42.520;27.448;2024-01-30T03:51:26;12.93;;;6.57;;
8574;SDS011;4325;42.520;27.448;2024-01-30T03:53:53;12.57;;;6.53;;
8574;SDS011;4325;42.520;27.448;2024-01-30T03:56:20;10.73;;;6.60;;
8574;SDS011;4325;42.520;27.448;2024-01-30T03:58:47;12.77;;;6.93;;
8574;SDS011;4325;42.520;27.448;2024-01-30T04:01:14;11.53;;;6.47;;
8574;SDS011;4325;42.520;27.448;2024-01-30T04:03:41;11.07;;;5.50;;
8574;SDS011;4325;42.520;27.448;2024-01-30T04:06:11;10.47;;;6.17;;
8574;SDS011;4325;42.520;27.448;2024-01-30T04:08:38;10.33;;;5.87;;
8574;SDS011;4325;42.520;27.448;2024-01-30T04:11:05;11.30;;;6.17;;
8574;SDS011;4325;42.520;27.448;2024-01-30T04:13:33;11.37;;;5.87;;
8574;SDS011;4325;42.520;27.448;2024-01-30T04:16:01;10.70;;;6.40;;
8574;SDS011;4325;42.520;27.448;2024-01-30T04:18:28;11.03;;;6.60;;
8574;SDS011;4325;42.520;27.448;2024-01-30T04:20:55;12.70;;;6.97;;
8574;SDS011;4325;42.520;27.448;2024-01-30T04:23:24;12.27;;;6.60;;
8574;SDS011;4325;42.520;27.448;2024-01-30T04:25:51;12.90;;;7.23;;
8574;SDS011;4325;42.520;27.448;2024-01-30T04:28:18;13.90;;;6.50;;
8574;SDS011;4325;42.520;27.448;2024-01-30T04:30:45;11.83;;;6.33;;
8574;SDS011;4325;42.520;27.448;2024-01-30T04:33:12;11.27;;;6.20;;
8574;SDS011;4325;42.520;27.448;2024-01-30T04:35:39;10.63;;;6.20;;
8574;SDS011;4325;42.520;27.448;2024-01-30T04:38:06;10.37;;;5.67;;
8574;SDS011;4325;42.520;27.448;2024-01-30T04:40:35;10.00;;;6.13;;
8574;SDS011;4325;42.520;27.448;2024-01-30T04:43:02;11.90;;;6.70;;
8574;SDS011;4325;42.520;27.448;2024-01-30T04:45:29;12.83;;;6.63;;
8574;SDS011;4325;42.520;27.448;2024-01-30T04:47:56;12.13;;;5.83;;
8574;SDS011;4325;42.520;27.448;2024-01-30T04:50:23;10.93;;;6.20;;
8574;SDS011;4325;42.520;27.448;2024-01-30T04:52:51;11.10;;;6.43;;
8574;SDS011;4325;42.520;27.448;2024-01-30T04:55:18;14.93;;;6.23;;
8574;SDS011;4325;42.520;27.448;2024-01-30T04:57:47;14.07;;;6.43;;
8574;SDS011;4325;42.520;27.448;2024-01-30T05:00:14;10.93;;;5.93;;
8574;SDS011;4325;42.520;27.448;2024-01-30T05:02:41;12.00;;;6.93;;
8574;SDS011;4325;42.520;27.448;2024-01-30T05:05:08;10.83;;;6.07;;
8574;SDS011;4325;42.520;27.448;2024-01-30T05:07:36;11.20;;;6.60;;
8574;SDS011;4325;42.520;27.448;2024-01-30T05:10:03;12.70;;;7.17;;
8574;SDS011;4325;42.520;27.448;2024-01-30T05:12:30;11.90;;;6.27;;
8574;SDS011;4325;42.520;27.448;2024-01-30T05:14:59;11.53;;;5.77;;
8574;SDS011;4325;42.520;27.448;2024-01-30T05:17:26;12.43;;;6.20;;
8574;SDS011;4325;42.520;27.448;2024-01-30T05:19:53;12.77;;;6.63;;
8574;SDS011;4325;42.520;27.448;2024-01-30T05:22:20;10.20;;;5.97;;
8574;SDS011;4325;42.520;27.448;2024-01-30T05:24:47;17.10;;;6.87;;
8574;SDS011;4325;42.520;27.448;2024-01-30T05:27:14;11.20;;;6.20;;
8574;SDS011;4325;42.520;27.448;2024-01-30T05:29:41;14.40;;;6.60;;
8574;SDS011;4325;42.520;27.448;2024-01-30T05:32:09;11.43;;;6.20;;
8574;SDS011;4325;42.520;27.448;2024-01-30T05:34:37;12.70;;;5.70;;
8574;SDS011;4325;42.520;27.448;2024-01-30T05:37:04;13.10;;;6.43;;
8574;SDS011;4325;42.520;27.448;2024-01-30T05:39:31;12.57;;;5.60;;
8574;SDS011;4325;42.520;27.448;2024-01-30T05:41:58;14.13;;;6.67;;
8574;SDS011;4325;42.520;27.448;2024-01-30T05:44:26;16.33;;;7.27;;
8574;SDS011;4325;42.520;27.448;2024-01-30T05:46:53;11.10;;;6.97;;
8574;SDS011;4325;42.520;27.448;2024-01-30T05:49:21;15.03;;;6.60;;
8574;SDS011;4325;42.520;27.448;2024-01-30T05:51:48;12.43;;;6.50;;
8574;SDS011;4325;42.520;27.448;2024-01-30T05:54:15;10.30;;;6.67;;
8574;SDS011;4325;42.520;27.448;2024-01-30T05:57:01;13.83;;;6.60;;
8574;SDS011;4325;42.520;27.448;2024-01-30T05:59:28;11.10;;;6.20;;
8574;SDS011;4325;42.520;27.448;2024-01-30T06:01:55;20.53;;;7.47;;
8574;SDS011;4325;42.520;27.448;2024-01-30T06:04:23;10.33;;;5.83;;
8574;SDS011;4325;42.520;27.448;2024-01-30T06:06:50;11.30;;;6.57;;
8574;SDS011;4325;42.520;27.448;2024-01-30T06:09:17;21.43;;;7.27;;
8574;SDS011;4325;42.520;27.448;2024-01-30T06:11:44;10.60;;;6.67;;
8574;SDS011;4325;42.520;27.448;2024-01-30T06:14:11;12.23;;;6.67;;
8574;SDS011;4325;42.520;27.448;2024-01-30T06:16:38;14.50;;;7.10;;
8574;SDS011;4325;42.520;27.448;2024-01-30T06:19:06;17.73;;;6.67;;
8574;SDS011;4325;42.520;27.448;2024-01-30T06:21:34;12.40;;;6.93;;
8574;SDS011;4325;42.520;27.448;2024-01-30T06:24:03;9.10;;;5.60;;
8574;SDS011;4325;42.520;27.448;2024-01-30T06:26:30;13.47;;;5.60;;
8574;SDS011;4325;42.520;27.448;2024-01-30T06:28:57;10.33;;;5.93;;
8574;SDS011;4325;42.520;27.448;2024-01-30T06:31:24;11.27;;;5.90;;
8574;SDS011;4325;42.520;27.448;2024-01-30T06:33:51;10.73;;;5.90;;
8574;SDS011;4325;42.520;27.448;2024-01-30T06:36:18;10.83;;;6.20;;
8574;SDS011;4325;42.520;27.448;2024-01-30T06:38:47;12.90;;;6.07;;
8574;SDS011;4325;42.520;27.448;2024-01-30T06:41:14;12.67;;;5.63;;
8574;SDS011;4325;42.520;27.448;2024-01-30T06:43:41;12.43;;;6.57;;
8574;SDS011;4325;42.520;27.448;2024-01-30T06:46:10;12.10;;;6.57;;
8574;SDS011;4325;42.520;27.448;2024-01-30T06:48:38;13.83;;;6.50;;
8574;SDS011;4325;42.520;27.448;2024-01-30T06:51:05;11.10;;;6.10;;
8574;SDS011;4325;42.520;27.448;2024-01-30T06:53:32;16.97;;;6.60;;
8574;SDS011;4325;42.520;27.448;2024-01-30T06:56:02;10.43;;;6.00;;
8574;SDS011;4325;42.520;27.448;2024-01-30T06:58:29;11.33;;;6.00;;
8574;SDS011;4325;42.520;27.448;2024-01-30T07:00:56;12.33;;;6.40;;
8574;SDS011;4325;42.520;27.448;2024-01-30T07:03:23;16.30;;;6.23;;
8574;SDS011;4325;42.520;27.448;2024-01-30T07:05:50;10.17;;;5.70;;
8574;SDS011;4325;42.520;27.448;2024-01-30T07:08:18;10.70;;;6.07;;
8574;SDS011;4325;42.520;27.448;2024-01-30T07:10:45;12.13;;;6.10;;
8574;SDS011;4325;42.520;27.448;2024-01-30T07:13:14;12.03;;;6.27;;
8574;SDS011;4325;42.520;27.448;2024-01-30T07:15:41;11.27;;;5.50;;
8574;SDS011;4325;42.520;27.448;2024-01-30T07:18:08;10.40;;;5.93;;
8574;SDS011;4325;42.520;27.448;2024-01-30T07:20:36;10.30;;;5.37;;
8574;SDS011;4325;42.520;27.448;2024-01-30T07:23:06;10.50;;;5.93;;
8574;SDS011;4325;42.520;27.448;2024-01-30T07:25:36;9.63;;;5.90;;
8574;SDS011;4325;42.520;27.448;2024-01-30T07:28:03;8.57;;;5.17;;
8574;SDS011;4325;42.520;27.448;2024-01-30T07:30:32;12.07;;;5.93;;
8574;SDS011;4325;42.520;27.448;2024-01-30T07:32:59;16.50;;;6.27;;
8574;SDS011;4325;42.520;27.448;2024-01-30T07:35:26;11.17;;;6.27;;
8574;SDS011;4325;42.520;27.448;2024-01-30T07:37:53;12.50;;;6.00;;
8574;SDS011;4325;42.520;27.448;2024-01-30T07:40:22;8.87;;;5.73;;
8574;SDS011;4325;42.520;27.448;2024-01-30T07:42:49;9.80;;;5.70;;
8574;SDS011;4325;42.520;27.448;2024-01-30T07:45:16;9.77;;;5.00;;
8574;SDS011;4325;42.520;27.448;2024-01-30T07:47:48;10.17;;;5.17;;
8574;SDS011;4325;42.520;27.448;2024-01-30T07:50:15;10.97;;;6.13;;
8574;SDS011;4325;42.520;27.448;2024-01-30T07:52:42;11.33;;;5.43;;
8574;SDS011;4325;42.520;27.448;2024-01-30T07:55:10;12.03;;;6.50;;
8574;SDS011;4325;42.520;27.448;2024-01-30T07:57:38;8.47;;;4.90;;
8574;SDS011;4325;42.520;27.448;2024-01-30T08:00:06;10.80;;;5.70;;
8574;SDS011;4325;42.520;27.448;2024-01-30T08:02:33;11.73;;;5.83;;
8574;SDS011;4325;42.520;27.448;2024-01-30T08:05:02;14.70;;;7.20;;
8574;SDS011;4325;42.520;27.448;2024-01-30T08:07:29;13.43;;;6.17;;
8574;SDS011;4325;42.520;27.448;2024-01-30T08:09:56;13.00;;;5.80;;
8574;SDS011;4325;42.520;27.448;2024-01-30T08:12:23;14.10;;;6.43;;
8574;SDS011;4325;42.520;27.448;2024-01-30T08:14:50;10.73;;;5.83;;
8574;SDS011;4325;42.520;27.448;2024-01-30T08:17:17;10.63;;;6.47;;
8574;SDS011;4325;42.520;27.448;2024-01-30T08:19:44;9.40;;;6.03;;
8574;SDS011;4325;42.520;27.448;2024-01-30T08:22:13;10.80;;;5.90;;
8574;SDS011;4325;42.520;27.448;2024-01-30T08:24:40;13.30;;;5.47;;
8574;SDS011;4325;42.520;27.448;2024-01-30T08:27:08;9.60;;;4.93;;
8574;SDS011;4325;42.520;27.448;2024-01-30T08:29:35;10.93;;;6.13;;
8574;SDS011;4325;42.520;27.448;2024-01-30T08:32:04;8.00;;;4.73;;
8574;SDS011;4325;42.520;27.448;2024-01-30T08:34:31;9.03;;;4.93;;
8574;SDS011;4325;42.520;27.448;2024-01-30T08:36:59;8.83;;;5.30;;
8574;SDS011;4325;42.520;27.448;2024-01-30T08:39:27;9.07;;;5.00;;
8574;SDS011;4325;42.520;27.448;2024-01-30T08:41:54;9.97;;;5.80;;
8574;SDS011;4325;42.520;27.448;2024-01-30T08:44:21;6.90;;;4.50;;
8574;SDS011;4325;42.520;27.448;2024-01-30T08:46:48;12.17;;;5.03;;
8574;SDS011;4325;42.520;27.448;2024-01-30T08:49:16;8.77;;;5.20;;
8574;SDS011;4325;42.520;27.448;2024-01-30T08:51:43;9.13;;;5.70;;
8574;SDS011;4325;42.520;27.448;2024-01-30T08:54:10;9.57;;;5.50;;
8574;SDS011;4325;42.520;27.448;2024-01-30T08:56:38;6.83;;;4.73;;
8574;SDS011;4325;42.520;27.448;2024-01-30T08:59:05;9.60;;;5.27;;
8574;SDS011;4325;42.520;27.448;2024-01-30T09:01:33;10.60;;;5.33;;
8574;SDS011;4325;42.520;27.448;2024-01-30T09:04:00;9.53;;;5.10;;
8574;SDS011;4325;42.520;27.448;2024-01-30T09:06:27;13.93;;;5.03;;
8574;SDS011;4325;42.520;27.448;2024-01-30T09:08:54;9.07;;;4.70;;
8574;SDS011;4325;42.520;27.448;2024-01-30T09:11:23;12.63;;;5.00;;
8574;SDS011;4325;42.520;27.448;2024-01-30T09:13:51;12.20;;;4.50;;
8574;SDS011;4325;42.520;27.448;2024-01-30T09:16:18;11.10;;;5.17;;
8574;SDS011;4325;42.520;27.448;2024-01-30T09:18:45;6.80;;;4.43;;
8574;SDS011;4325;42.520;27.448;2024-01-30T09:21:12;9.40;;;5.27;;
8574;SDS011;4325;42.520;27.448;2024-01-30T09:23:39;7.53;;;4.57;;
8574;SDS011;4325;42.520;27.448;2024-01-30T09:26:06;10.10;;;4.87;;
8574;SDS011;4325;42.520;27.448;2024-01-30T09:28:34;8.90;;;5.27;;
8574;SDS011;4325;42.520;27.448;2024-01-30T09:31:02;6.57;;;4.33;;
8574;SDS011;4325;42.520;27.448;2024-01-30T09:33:30;7.33;;;4.77;;
8574;SDS011;4325;42.520;27.448;2024-01-30T09:35:57;8.93;;;4.30;;
8574;SDS011;4325;42.520;27.448;2024-01-30T09:38:24;8.60;;;4.97;;
8574;SDS011;4325;42.520;27.448;2024-01-30T09:40:54;10.27;;;5.43;;
8574;SDS011;4325;42.520;27.448;2024-01-30T09:43:22;5.83;;;4.33;;
8574;SDS011;4325;42.520;27.448;2024-01-30T09:45:50;7.87;;;4.43;;
8574;SDS011;4325;42.520;27.448;2024-01-30T09:48:18;9.10;;;4.47;;
8574;SDS011;4325;42.520;27.448;2024-01-30T09:50:46;8.27;;;4.40;;
8574;SDS011;4325;42.520;27.448;2024-01-30T09:53:13;9.30;;;4.40;;
8574;SDS011;4325;42.520;27.448;2024-01-30T09:55:42;8.77;;;5.27;;
8574;SDS011;4325;42.520;27.448;2024-01-30T09:58:09;7.87;;;4.43;;
8574;SDS011;4325;42.520;27.448;2024-01-30T10:00:36;6.70;;;4.07;;
8574;SDS011;4325;42.520;27.448;2024-01-30T10:03:03;10.00;;;4.40;;
8574;SDS011;4325;42.520;27.448;2024-01-30T10:05:32;5.90;;;4.30;;
8574;SDS011;4325;42.520;27.448;2024-01-30T10:08:05;9.17;;;4.20;;
8574;SDS011;4325;42.520;27.448;2024-01-30T10:10:33;6.60;;;4.00;;
8574;SDS011;4325;42.520;27.448;2024-01-30T10:13:00;8.37;;;3.90;;
8574;SDS011;4325;42.520;27.448;2024-01-30T10:15:28;9.57;;;4.87;;
8574;SDS011;4325;42.520;27.448;2024-01-30T10:17:55;9.63;;;4.10;;
8574;SDS011;4325;42.520;27.448;2024-01-30T10:20:22;9.03;;;3.93;;
8574;SDS011;4325;42.520;27.448;2024-01-30T10:22:52;11.33;;;3.73;;
8574;SDS011;4325;42.520;27.448;2024-01-30T10:25:21;5.97;;;4.37;;
8574;SDS011;4325;42.520;27.448;2024-01-30T10:27:52;7.83;;;4.10;;
8574;SDS011;4325;42.520;27.448;2024-01-30T10:30:20;6.93;;;3.93;;
8574;SDS011;4325;42.520;27.448;2024-01-30T10:32:47;14.87;;;4.37;;
8574;SDS011;4325;42.520;27.448;2024-01-30T10:35:15;6.60;;;4.00;;
8574;SDS011;4325;42.520;27.448;2024-01-30T10:37:43;6.70;;;3.80;;
8574;SDS011;4325;42.520;27.448;2024-01-30T10:40:13;7.00;;;3.80;;
8574;SDS011;4325;42.520;27.448;2024-01-30T10:42:42;9.13;;;3.63;;
8574;SDS011;4325;42.520;27.448;2024-01-30T10:45:10;4.93;;;3.43;;
8574;SDS011;4325;42.520;27.448;2024-01-30T10:47:39;6.40;;;3.83;;
8574;SDS011;4325;42.520;27.448;2024-01-30T10:50:07;7.60;;;4.10;;
8574;SDS011;4325;42.520;27.448;2024-01-30T10:52:36;5.50;;;3.87;;
8574;SDS011;4325;42.520;27.448;2024-01-30T10:55:04;7.37;;;3.60;;
8574;SDS011;4325;42.520;27.448;2024-01-30T10:57:35;5.37;;;3.67;;
8574;SDS011;4325;42.520;27.448;2024-01-30T11:00:02;6.17;;;3.87;;
8574;SDS011;4325;42.520;27.448;2024-01-30T11:02:36;6.57;;;4.00;;
8574;SDS011;4325;42.520;27.448;2024-01-30T11:05:05;6.97;;;3.83;;
8574;SDS011;4325;42.520;27.448;2024-01-30T11:07:33;6.67;;;4.23;;
8574;SDS011;4325;42.520;27.448;2024-01-30T11:10:02;10.43;;;4.97;;
8574;SDS011;4325;42.520;27.448;2024-01-30T11:12:31;6.87;;;4.23;;
8574;SDS011;4325;42.520;27.448;2024-01-30T11:15:04;6.93;;;4.43;;
8574;SDS011;4325;42.520;27.448;2024-01-30T11:17:41;10.23;;;5.27;;
8574;SDS011;4325;42.520;27.448;2024-01-30T11:20:10;8.60;;;4.43;;
8574;SDS011;4325;42.520;27.448;2024-01-30T11:22:40;9.97;;;5.00;;
8574;SDS011;4325;42.520;27.448;2024-01-30T11:25:11;6.93;;;4.10;;
8574;SDS011;4325;42.520;27.448;2024-01-30T11:27:41;8.83;;;4.40;;
8574;SDS011;4325;42.520;27.448;2024-01-30T11:30:09;6.93;;;4.50;;
8574;SDS011;4325;42.520;27.448;2024-01-30T11:32:37;7.20;;;4.90;;
8574;SDS011;4325;42.520;27.448;2024-01-30T11:35:04;7.47;;;5.00;;
8574;SDS011;4325;42.520;27.448;2024-01-30T11:37:36;8.47;;;4.97;;
8574;SDS011;4325;42.520;27.448;2024-01-30T11:40:04;7.97;;;4.50;;
8574;SDS011;4325;42.520;27.448;2024-01-30T11:42:32;9.93;;;4.87;;
8574;SDS011;4325;42.520;27.448;2024-01-30T11:45:05;10.50;;;5.20;;
8574;SDS011;4325;42.520;27.448;2024-01-30T11:47:35;9.17;;;4.70;;
8574;SDS011;4325;42.520;27.448;2024-01-30T11:50:03;6.57;;;4.70;;
8574;SDS011;4325;42.520;27.448;2024-01-30T11:52:31;7.77;;;4.50;;
8574;SDS011;4325;42.520;27.448;2024-01-30T11:55:00;9.87;;;4.47;;
8574;SDS011;4325;42.520;27.448;2024-01-30T11:57:27;8.90;;;4.43;;
8574;SDS011;4325;42.520;27.448;2024-01-30T11:59:55;7.87;;;4.53;;
8574;SDS011;4325;42.520;27.448;2024-01-30T12:02:22;8.27;;;4.83;;
8574;SDS011;4325;42.520;27.448;2024-01-30T12:04:50;8.30;;;3.87;;
8574;SDS011;4325;42.520;27.448;2024-01-30T12:07:17;10.77;;;4.40;;
8574;SDS011;4325;42.520;27.448;2024-01-30T12:09:52;8.27;;;4.53;;
8574;SDS011;4325;42.520;27.448;2024-01-30T12:12:19;8.23;;;4.30;;
8574;SDS011;4325;42.520;27.448;2024-01-30T12:14:49;10.30;;;5.10;;
8574;SDS011;4325;42.520;27.448;2024-01-30T12:17:22;8.10;;;4.30;;
8574;SDS011;4325;42.520;27.448;2024-01-30T12:20:01;7.97;;;4.10;;
8574;SDS011;4325;42.520;27.448;2024-01-30T12:22:29;8.10;;;4.10;;
8574;SDS011;4325;42.520;27.448;2024-01-30T12:24:57;10.80;;;4.17;;
8574;SDS011;4325;42.520;27.448;2024-01-30T12:27:24;6.57;;;3.73;;
8574;SDS011;4325;42.520;27.448;2024-01-30T12:29:55;7.83;;;4.30;;
8574;SDS011;4325;42.520;27.448;2024-01-30T12:32:23;7.40;;;4.00;;
8574;SDS011;4325;42.520;27.448;2024-01-30T12:34:54;8.03;;;4.23;;
8574;SDS011;4325;42.520;27.448;2024-01-30T12:37:21;6.37;;;3.80;;
8574;SDS011;4325;42.520;27.448;2024-01-30T12:39:51;7.53;;;4.07;;
8574;SDS011;4325;42.520;27.448;2024-01-30T12:42:19;6.87;;;3.67;;
8574;SDS011;4325;42.520;27.448;2024-01-30T12:44:47;6.57;;;3.80;;
8574;SDS011;4325;42.520;27.448;2024-01-30T12:47:14;7.40;;;4.13;;
8574;SDS011;4325;42.520;27.448;2024-01-30T12:49:42;6.63;;;3.93;;
8574;SDS011;4325;42.520;27.448;2024-01-30T12:52:11;6.00;;;3.77;;
8574;SDS011;4325;42.520;27.448;2024-01-30T12:54:38;6.97;;;3.57;;
8574;SDS011;4325;42.520;27.448;2024-01-30T12:57:05;7.57;;;4.60;;
8574;SDS011;4325;42.520;27.448;2024-01-30T12:59:32;9.23;;;4.97;;
8574;SDS011;4325;42.520;27.448;2024-01-30T13:02:00;8.53;;;4.13;;
8574;SDS011;4325;42.520;27.448;2024-01-30T13:04:28;9.13;;;4.20;;
8574;SDS011;4325;42.520;27.448;2024-01-30T13:06:57;6.80;;;3.53;;
8574;SDS011;4325;42.520;27.448;2024-01-30T13:09:27;4.93;;;3.63;;
8574;SDS011;4325;42.520;27.448;2024-01-30T13:11:54;9.07;;;4.23;;
8574;SDS011;4325;42.520;27.448;2024-01-30T13:14:21;6.43;;;4.00;;
8574;SDS011;4325;42.520;27.448;2024-01-30T13:16:48;7.30;;;3.93;;
8574;SDS011;4325;42.520;27.448;2024-01-30T13:19:16;10.10;;;4.77;;
8574;SDS011;4325;42.520;27.448;2024-01-30T13:21:43;5.70;;;3.90;;
8574;SDS011;4325;42.520;27.448;2024-01-30T13:24:10;7.07;;;3.87;;
8574;SDS011;4325;42.520;27.448;2024-01-30T13:26:38;8.90;;;3.90;;
8574;SDS011;4325;42.520;27.448;2024-01-30T13:29:05;6.80;;;4.10;;
8574;SDS011;4325;42.520;27.448;2024-01-30T13:31:32;6.80;;;3.73;;
8574;SDS011;4325;42.520;27.448;2024-01-30T13:33:59;14.07;;;4.57;;
8574;SDS011;4325;42.520;27.448;2024-01-30T13:36:26;9.17;;;4.07;;
8574;SDS011;4325;42.520;27.448;2024-01-30T13:38:54;8.30;;;4.60;;
8574;SDS011;4325;42.520;27.448;2024-01-30T13:41:21;8.27;;;4.60;;
8574;SDS011;4325;42.520;27.448;2024-01-30T13:43:50;11.93;;;5.10;;
8574;SDS011;4325;42.520;27.448;2024-01-30T13:46:17;8.40;;;4.90;;
8574;SDS011;4325;42.520;27.448;2024-01-30T13:48:44;12.07;;;5.60;;
8574;SDS011;4325;42.520;27.448;2024-01-30T13:51:11;9.20;;;4.53;;
8574;SDS011;4325;42.520;27.448;2024-01-30T13:53:38;8.43;;;4.50;;
8574;SDS011;4325;42.520;27.448;2024-01-30T13:56:05;10.87;;;4.70;;
8574;SDS011;4325;42.520;27.448;2024-01-30T13:58:33;13.67;;;4.50;;
8574;SDS011;4325;42.520;27.448;2024-01-30T14:01:02;8.40;;;4.00;;
8574;SDS011;4325;42.520;27.448;2024-01-30T14:03:30;7.23;;;4.17;;
8574;SDS011;4325;42.520;27.448;2024-01-30T14:05:57;7.20;;;4.37;;
8574;SDS011;4325;42.520;27.448;2024-01-30T14:08:24;10.07;;;4.30;;
8574;SDS011;4325;42.520;27.448;2024-01-30T14:10:53;7.70;;;4.37;;
8574;SDS011;4325;42.520;27.448;2024-01-30T14:13:21;9.30;;;4.30;;
8574;SDS011;4325;42.520;27.448;2024-01-30T14:15:50;8.77;;;5.07;;
8574;SDS011;4325;42.520;27.448;2024-01-30T14:18:18;9.87;;;4.83;;
8574;SDS011;4325;42.520;27.448;2024-01-30T14:20:46;8.33;;;4.33;;
8574;SDS011;4325;42.520;27.448;2024-01-30T14:23:13;7.13;;;4.50;;
8574;SDS011;4325;42.520;27.448;2024-01-30T14:25:40;10.37;;;5.23;;
8574;SDS011;4325;42.520;27.448;2024-01-30T14:28:07;6.60;;;4.67;;
8574;SDS011;4325;42.520;27.448;2024-01-30T14:30:34;13.20;;;5.17;;
8574;SDS011;4325;42.520;27.448;2024-01-30T14:33:01;7.10;;;4.23;;
8574;SDS011;4325;42.520;27.448;2024-01-30T14:35:29;13.83;;;4.97;;
8574;SDS011;4325;42.520;27.448;2024-01-30T14:37:56;12.77;;;4.67;;
8574;SDS011;4325;42.520;27.448;2024-01-30T14:40:23;8.00;;;4.33;;
8574;SDS011;4325;42.520;27.448;2024-01-30T14:42:50;6.53;;;4.67;;
8574;SDS011;4325;42.520;27.448;2024-01-30T14:45:17;9.43;;;4.60;;
8574;SDS011;4325;42.520;27.448;2024-01-30T14:47:45;7.87;;;4.97;;
8574;SDS011;4325;42.520;27.448;2024-01-30T14:50:13;5.93;;;3.63;;
8574;SDS011;4325;42.520;27.448;2024-01-30T14:52:43;5.40;;;4.07;;
8574;SDS011;4325;42.520;27.448;2024-01-30T14:55:10;5.53;;;3.80;;